Time;durP1;ratioP1;P1;durP2;ratioP2;P2;SDS_P1;SDS_P2;PMS_P1;PMS_P2;Temp;Humidity;BMP_temperature;BMP_pressure;BME280_temperature;BME280_humidity;BME280_pressure;Samples;Min_cycle;Max_cycle;Signal;HPM_P1;HPM_P2
2024/04/17 00:00:07;;;;;;;1.90;1.52;;;;;;;;;;5390612;26;20346;-89
2024/04/17 00:02:39;;;;;;;2.08;1.75;;;;;;;;;;5392332;26;20380;-87
2024/04/17 00:05:05;;;;;;;1.95;1.73;;;;;;;;;;5392706;26;20369;-89
2024/04/17 00:07:31;;;;;;;1.60;1.50;;;;;;;;;;5393776;26;20338;-88
2024/04/17 00:09:57;;;;;;;1.60;1.30;;;;;;;;;;5400084;26;20404;-88
2024/04/17 00:12:28;;;;;;;1.20;1.10;;;;;;;;;;5388068;26;20346;-90
2024/04/17 00:14:54;;;;;;;1.00;0.90;;;;;;;;;;5383017;26;20331;-89
2024/04/17 00:17:20;;;;;;;1.35;1.05;;;;;;;;;;5386143;26;20416;-89
2024/04/17 00:19:46;;;;;;;1.00;1.00;;;;;;;;;;5387877;26;20322;-89
2024/04/17 00:22:12;;;;;;;1.52;1.00;;;;;;;;;;5384489;26;20386;-89
2024/04/17 00:24:38;;;;;;;1.40;1.00;;;;;;;;;;5381247;26;20432;-89
2024/04/17 00:27:04;;;;;;;1.40;1.20;;;;;;;;;;5379944;26;20349;-89
2024/04/17 00:29:30;;;;;;;2.20;1.40;;;;;;;;;;5380382;26;20499;-89
2024/04/17 00:31:56;;;;;;;1.38;1.27;;;;;;;;;;5382366;26;20830;-89
2024/04/17 00:34:22;;;;;;;2.08;1.33;;;;;;;;;;5382215;26;20346;-89
2024/04/17 00:36:48;;;;;;;1.40;1.30;;;;;;;;;;5379643;26;20450;-89
2024/04/17 00:39:13;;;;;;;1.10;1.00;;;6.30;99.90;;;;;;5381505;26;20349;-88
2024/04/17 00:41:39;;;;;;;1.20;1.10;;;;;;;;;;5387084;26;20425;-88
2024/04/17 00:44:05;;;;;;;1.52;1.20;;;6.20;99.90;;;;;;5386912;26;20428;-88
2024/04/17 00:46:31;;;;;;;1.40;1.30;;;;;;;;;;5381965;26;20326;-88
2024/04/17 00:48:57;;;;;;;2.10;1.20;;;6.20;99.90;;;;;;5383168;26;20352;-88
2024/04/17 00:51:23;;;;;;;1.27;1.17;;;;;;;;;;5381943;26;20327;-90
2024/04/17 00:53:48;;;;;;;0.90;0.90;;;6.40;99.90;;;;;;5381176;26;20363;-86
2024/04/17 00:56:14;;;;;;;1.40;1.30;;;;;;;;;;5381116;26;20393;-88
2024/04/17 00:58:40;;;;;;;1.90;1.20;;;;;;;;;;5383656;26;20318;-90
2024/04/17 01:01:06;;;;;;;2.20;1.50;;;;;;;;;;5381442;26;20338;-88
2024/04/17 01:03:32;;;;;;;1.58;1.27;;;;;;;;;;5380569;26;20353;-88
2024/04/17 01:05:58;;;;;;;1.40;1.20;;;;;;;;;;5380938;26;20330;-90
2024/04/17 01:08:24;;;;;;;1.65;1.25;;;;;;;;;;5381789;26;20366;-90
2024/04/17 01:11:24;;;;;;;2.15;1.33;;;6.40;99.90;;;;;;5382854;26;20334;-89
2024/04/17 01:13:50;;;;;;;1.55;1.45;;;;;;;;;;5402200;26;20366;-90
2024/04/17 01:16:16;;;;;;;1.50;1.40;;;6.40;99.90;;;;;;5388062;26;20362;-86
2024/04/17 01:18:43;;;;;;;1.65;1.55;;;6.30;99.90;;;;;;5380476;26;20346;-87
2024/04/17 01:21:09;;;;;;;2.10;1.90;;;6.30;99.90;;;;;;5380197;26;20841;-88
2024/04/17 01:23:34;;;;;;;2.35;1.50;;;6.40;99.90;;;;;;5380564;26;20424;-87
2024/04/17 01:26:01;;;;;;;2.10;2.00;;;;;;;;;;5379675;26;20338;-86
2024/04/17 01:28:26;;;;;;;1.80;1.70;;;;;;;;;;5379070;26;20362;-87
2024/04/17 01:30:52;;;;;;;1.80;1.70;;;6.10;99.90;;;;;;5379570;26;20326;-86
2024/04/17 01:33:18;;;;;;;2.17;1.90;;;;;;;;;;5379996;26;20357;-87
2024/04/17 01:35:44;;;;;;;2.30;2.10;;;6.20;99.90;;;;;;5383552;26;20334;-87
2024/04/17 01:38:09;;;;;;;2.60;2.00;;;6.20;99.90;;;;;;5383193;26;20362;-87
2024/04/17 01:40:35;;;;;;;3.40;2.03;;;;;;;;;;5390550;26;20834;-87
2024/04/17 01:43:04;;;;;;;3.40;2.58;;;;;;;;;;5391590;26;20346;-89
2024/04/17 01:45:30;;;;;;;2.60;2.30;;;;;;;;;;5386822;26;20334;-87
2024/04/17 01:47:56;;;;;;;2.50;2.40;;;;;;;;;;5404191;26;20322;-89
2024/04/17 01:50:28;;;;;;;2.42;2.30;;;6.00;99.90;;;;;;5404083;26;20346;-88
2024/04/17 01:52:54;;;;;;;3.38;2.80;;;;;;;;;;5401042;26;20342;-89
2024/04/17 01:55:21;;;;;;;2.70;2.50;;;;;;;;;;5396333;26;20346;-90
2024/04/17 01:57:47;;;;;;;3.20;3.00;;;;;;;;;;5399398;26;20341;-90
2024/04/17 02:00:13;;;;;;;3.65;2.78;;;;;;;;;;5396102;26;20338;-89
2024/04/17 02:02:39;;;;;;;3.28;2.97;;;;;;;;;;5399609;26;20338;-90
2024/04/17 02:05:05;;;;;;;3.57;2.60;;;6.20;99.90;;;;;;5395324;26;20431;-86
2024/04/17 02:07:31;;;;;;;2.83;2.63;;;;;;;;;;5396830;26;20335;-86
2024/04/17 02:09:56;;;;;;;2.88;2.67;;;6.10;99.90;;;;;;5395498;26;20322;-87
2024/04/17 02:12:22;;;;;;;3.30;3.10;;;;;;;;;;5405308;26;20318;-89
2024/04/17 02:14:48;;;;;;;3.97;3.67;;;;;;;;;;5404848;26;20358;-87
2024/04/17 02:17:14;;;;;;;3.70;3.50;;;6.20;99.90;;;;;;5403192;26;20386;-87
2024/04/17 02:19:40;;;;;;;3.80;3.50;;;;;;;;;;5403140;26;20334;-90
2024/04/17 02:22:05;;;;;;;3.35;3.05;;;6.10;99.90;;;;;;5392599;26;20326;-87
2024/04/17 02:24:31;;;;;;;3.87;3.57;;;;;;;;;;5396943;26;20334;-91
2024/04/17 02:26:57;;;;;;;3.45;3.15;;;6.30;99.90;;;;;;5395685;26;20371;-90
2024/04/17 02:29:22;;;;;;;3.30;3.10;;;6.00;99.90;;;;;;5391037;26;20857;-89
2024/04/17 02:31:48;;;;;;;3.80;3.50;;;;;;;;;;5387746;26;20362;-87
2024/04/17 02:34:14;;;;;;;4.32;3.92;;;;;;;;;;5387898;26;20449;-90
2024/04/17 02:36:40;;;;;;;3.70;3.40;;;6.30;99.90;;;;;;5386991;26;20350;-87
2024/04/17 02:39:05;;;;;;;3.90;3.60;;;6.30;99.90;;;;;;5423588;21;20343;-83
2024/04/17 02:41:31;;;;;;;3.90;3.60;;;5.70;99.90;;;;;;5426444;26;20343;-81
2024/04/17 02:43:56;;;;;;;4.00;3.70;;;5.80;99.90;;;;;;5432926;26;20410;-81
2024/04/17 02:46:22;;;;;;;4.68;3.80;;;6.10;99.90;;;;;;5427438;26;20683;-83
2024/04/17 02:48:47;;;;;;;3.83;3.53;;;6.40;99.90;;;;;;5401924;26;20335;-83
2024/04/17 02:51:13;;;;;;;3.90;3.60;;;6.00;99.90;;;;;;5421984;26;20347;-83
2024/04/17 02:53:38;;;;;;;4.20;3.30;;;5.90;99.90;;;;;;5418773;26;20664;-83
2024/04/17 02:56:04;;;;;;;3.30;3.10;;;5.90;99.90;;;;;;5429881;26;20372;-80
2024/04/17 02:58:30;;;;;;;3.30;3.00;;;6.20;99.90;;;;;;5418481;26;20627;-81
2024/04/17 03:00:55;;;;;;;3.20;2.90;;;6.10;99.90;;;;;;5426737;26;20372;-82
2024/04/17 03:03:21;;;;;;;3.42;2.90;;;5.90;99.90;;;;;;5407055;26;20336;-81
2024/04/17 03:05:46;;;;;;;3.00;2.80;;;6.10;99.90;;;;;;5406216;26;20332;-81
2024/04/17 03:08:12;;;;;;;2.80;2.60;;;5.90;99.90;;;;;;5401251;26;20328;-83
2024/04/17 03:10:37;;;;;;;3.50;3.20;;;5.70;99.90;;;;;;5419562;26;20328;-82
2024/04/17 03:13:03;;;;;;;3.10;2.80;;;5.70;99.90;;;;;;5419446;26;20339;-80
2024/04/17 03:15:28;;;;;;;3.07;2.83;;;6.10;99.90;;;;;;5414240;26;20350;-81
2024/04/17 03:17:54;;;;;;;3.40;3.10;;;6.10;99.90;;;;;;5409520;26;20418;-84
2024/04/17 03:20:19;;;;;;;4.00;2.80;;;6.10;99.90;;;;;;5404807;26;20360;-82
2024/04/17 03:22:45;;;;;;;2.73;2.53;;;5.90;99.90;;;;;;5413902;26;20316;-82
2024/04/17 03:25:10;;;;;;;2.90;2.70;;;5.80;99.90;;;;;;5397553;26;20327;-80
2024/04/17 03:27:37;;;;;;;2.60;2.40;;;6.00;99.90;;;;;;5427143;26;20319;-80
2024/04/17 03:30:02;;;;;;;3.40;2.60;;;5.90;99.90;;;;;;5435047;26;20320;-81
2024/04/17 03:32:28;;;;;;;2.50;2.30;;;6.00;99.90;;;;;;5422177;26;20713;-82
2024/04/17 03:34:53;;;;;;;2.67;2.47;;;5.70;99.90;;;;;;5404055;26;20326;-83
2024/04/17 03:37:19;;;;;;;2.60;2.30;;;6.10;99.90;;;;;;5415449;26;20671;-82
2024/04/17 03:39:44;;;;;;;2.30;2.10;;;6.00;99.90;;;;;;5418511;26;20534;-83
2024/04/17 03:42:10;;;;;;;2.33;2.22;;;6.00;99.90;;;;;;5417344;26;20335;-83
2024/04/17 03:44:35;;;;;;;2.42;2.20;;;6.00;99.90;;;;;;5408652;26;20368;-81
2024/04/17 03:47:01;;;;;;;2.57;2.37;;;5.60;99.90;;;;;;5418164;26;20413;-81
2024/04/17 03:49:26;;;;;;;2.40;2.20;;;6.00;99.90;;;;;;5420093;26;20419;-82
2024/04/17 03:51:52;;;;;;;3.10;2.80;;;5.70;99.90;;;;;;5420812;26;20365;-82
2024/04/17 03:54:17;;;;;;;3.23;2.20;;;5.90;99.90;;;;;;5419446;26;20362;-80
2024/04/17 03:56:43;;;;;;;2.40;2.20;;;5.90;99.90;;;;;;5416946;26;21022;-82
2024/04/17 03:59:09;;;;;;;2.40;2.13;;;5.90;99.90;;;;;;5415708;26;20985;-82
2024/04/17 04:01:36;;;;;;;2.40;2.20;;;5.90;99.90;;;;;;5421899;26;20395;-82
2024/04/17 04:04:01;;;;;;;2.60;2.40;;;5.80;99.90;;;;;;5420785;26;20372;-81
2024/04/17 04:06:27;;;;;;;2.80;2.20;;;5.70;99.90;;;;;;5426067;26;20328;-83
2024/04/17 04:08:53;;;;;;;2.30;2.20;;;5.70;99.90;;;;;;5396632;26;20407;-81
2024/04/17 04:11:18;;;;;;;2.50;2.30;;;5.90;99.90;;;;;;5430265;26;20363;-81
2024/04/17 04:13:44;;;;;;;2.60;2.40;;;6.30;99.90;;;;;;5422316;26;20319;-82
2024/04/17 04:16:09;;;;;;;2.30;2.20;;;5.90;99.90;;;;;;5421135;26;20384;-82
2024/04/17 04:18:35;;;;;;;2.45;2.30;;;6.10;99.90;;;;;;5404852;26;20327;-81
2024/04/17 04:21:00;;;;;;;3.70;2.60;;;5.90;99.90;;;;;;5419465;26;20324;-81
2024/04/17 04:23:26;;;;;;;3.80;2.90;;;6.00;99.90;;;;;;5410493;26;20866;-81
2024/04/17 04:25:51;;;;;;;3.37;2.83;;;6.00;99.90;;;;;;5419455;26;20339;-82
2024/04/17 04:28:17;;;;;;;3.00;2.80;;;6.10;99.90;;;;;;5395952;26;20339;-82
2024/04/17 04:30:42;;;;;;;2.80;2.60;;;5.80;99.90;;;;;;5420188;26;20363;-82
2024/04/17 04:33:11;;;;;;;2.70;2.50;;;5.80;99.90;;;;;;5417934;26;20772;-79
2024/04/17 04:35:37;;;;;;;3.03;2.83;;;6.00;99.90;;;;;;5407002;26;20835;-81
2024/04/17 04:38:03;;;;;;;2.45;2.35;;;5.90;99.90;;;;;;5391327;26;20394;-82
2024/04/17 04:40:28;;;;;;;3.00;2.80;;;5.80;99.90;;;;;;5420551;26;20335;-80
2024/04/17 04:42:54;;;;;;;2.90;2.70;;;5.30;99.90;;;;;;5421916;26;20372;-78
2024/04/17 04:45:19;;;;;;;2.97;2.77;;;5.70;99.90;;;;;;5421290;26;20335;-80
2024/04/17 04:47:45;;;;;;;2.97;2.77;;;5.70;99.90;;;;;;5404752;26;20370;-80
2024/04/17 04:50:10;;;;;;;2.83;2.60;;;5.80;99.90;;;;;;5414357;26;20320;-79
2024/04/17 04:52:36;;;;;;;2.73;2.53;;;5.60;99.90;;;;;;5393344;26;20343;-79
2024/04/17 04:55:04;;;;;;;2.80;2.60;;;5.40;99.90;;;;;;5420222;26;20331;-80
2024/04/17 04:57:30;;;;;;;2.72;2.53;;;6.00;99.90;;;;;;5417175;26;20343;-80
2024/04/17 04:59:57;;;;;;;2.90;2.70;;;6.10;99.90;;;;;;5404668;26;20377;-80
2024/04/17 05:02:24;;;;;;;3.25;2.60;;;5.90;99.90;;;;;;5394249;26;20336;-78
2024/04/17 05:04:49;;;;;;;3.00;2.70;;;5.80;99.90;;;;;;5427185;26;20365;-79
2024/04/17 05:07:15;;;;;;;2.80;2.60;;;5.80;99.90;;;;;;5418248;26;20343;-81
2024/04/17 05:09:40;;;;;;;2.70;2.50;;;6.00;99.90;;;;;;5419579;26;20335;-78
2024/04/17 05:12:06;;;;;;;2.80;2.60;;;5.60;99.90;;;;;;5410770;26;20570;-81
2024/04/17 05:14:32;;;;;;;3.00;2.70;;;5.90;99.90;;;;;;5421249;26;20332;-80
2024/04/17 05:16:57;;;;;;;2.80;2.50;;;5.90;99.90;;;;;;5417352;26;20339;-79
2024/04/17 05:19:23;;;;;;;2.90;2.70;;;5.90;99.90;;;;;;5416565;26;20336;-79
2024/04/17 05:21:48;;;;;;;2.95;2.65;;;5.70;99.90;;;;;;5407279;26;20933;-80
2024/04/17 05:24:14;;;;;;;3.50;3.20;;;6.00;99.90;;;;;;5407285;26;20351;-80
2024/04/17 05:26:39;;;;;;;3.30;3.10;;;5.80;99.90;;;;;;5408118;26;20436;-80
2024/04/17 05:29:06;;;;;;;3.10;2.90;;;6.10;99.90;;;;;;5410293;26;20418;-80
2024/04/17 05:31:32;;;;;;;2.75;2.55;;;5.60;99.90;;;;;;5417193;26;20350;-80
2024/04/17 05:33:57;;;;;;;2.80;2.60;;;5.70;99.90;;;;;;5415678;26;20331;-81
2024/04/17 05:36:23;;;;;;;2.60;2.40;;;5.80;99.90;;;;;;5419004;26;20389;-79
2024/04/17 05:38:48;;;;;;;2.20;2.10;;;6.50;99.90;;;;;;5397903;26;20435;-81
2024/04/17 05:41:14;;;;;;;2.00;1.90;;;6.00;99.90;;;;;;5402323;26;20374;-80
2024/04/17 05:43:39;;;;;;;2.30;2.10;;;5.60;99.90;;;;;;5424053;26;20351;-82
2024/04/17 05:46:05;;;;;;;2.97;2.78;;;5.80;99.90;;;;;;5403820;26;20336;-81
2024/04/17 05:48:30;;;;;;;2.50;2.30;;;8.30;99.90;;;;;;5418829;26;20363;-84
2024/04/17 05:50:56;;;;;;;2.33;1.90;;;5.50;99.90;;;;;;5415457;26;20688;-83
2024/04/17 05:53:21;;;;;;;2.67;1.53;;;5.70;99.90;;;;;;5417205;26;20673;-82
2024/04/17 05:55:47;;;;;;;1.90;1.80;;;5.60;99.90;;;;;;5386971;26;20338;-83
2024/04/17 05:58:12;;;;;;;5.00;1.60;;;5.80;99.90;;;;;;5411118;26;20354;-83
2024/04/17 06:00:38;;;;;;;1.80;1.70;;;5.40;99.90;;;;;;5420132;26;20316;-83
2024/04/17 06:03:05;;;;;;;2.35;1.70;;;5.80;99.90;;;;;;5420159;26;20323;-82
2024/04/17 06:05:31;;;;;;;1.90;1.80;;;5.70;99.90;;;;;;5417210;26;20859;-83
2024/04/17 06:07:57;;;;;;;1.60;1.50;;;5.60;99.90;;;;;;5417715;26;20371;-84
2024/04/17 06:10:22;;;;;;;1.80;1.70;;;5.20;99.90;;;;;;5429236;26;20356;-85
2024/04/17 06:12:48;;;;;;;2.10;1.70;;;5.80;99.90;;;;;;5419891;26;20364;-85
2024/04/17 06:15:14;;;;;;;1.73;1.63;;;5.80;99.90;;;;;;5405320;26;20334;-85
2024/04/17 06:17:39;;;;;;;2.60;1.70;;;5.80;99.90;;;;;;5418344;26;20331;-85
2024/04/17 06:20:05;;;;;;;2.00;1.50;;;6.00;99.90;;;;;;5420931;26;20684;-85
2024/04/17 06:22:31;;;;;;;1.50;1.40;;;5.90;99.90;;;;;;5419390;26;20335;-84
2024/04/17 06:24:56;;;;;;;1.70;1.60;;;5.90;99.90;;;;;;5401833;26;20359;-84
2024/04/17 06:27:22;;;;;;;1.50;1.40;;;5.90;99.90;;;;;;5428497;26;20866;-84
2024/04/17 06:29:48;;;;;;;2.10;1.70;;;5.90;99.90;;;;;;5424310;26;20339;-84
2024/04/17 06:32:13;;;;;;;1.58;1.48;;;6.20;99.90;;;;;;5432715;26;20439;-82
2024/04/17 06:34:39;;;;;;;2.60;1.50;;;5.80;99.90;;;;;;5435484;26;20331;-82
2024/04/17 06:37:05;;;;;;;2.10;1.60;;;6.10;99.90;;;;;;5431237;26;20397;-84
2024/04/17 06:39:30;;;;;;;1.50;1.40;;;5.90;99.90;;;;;;5424022;26;20838;-84
2024/04/17 06:41:57;;;;;;;1.52;1.40;;;5.80;99.90;;;;;;5417981;26;20335;-84
2024/04/17 06:44:23;;;;;;;1.60;1.50;;;5.60;99.90;;;;;;5417000;26;20327;-85
2024/04/17 06:46:48;;;;;;;3.08;2.40;;;5.60;99.90;;;;;;5416374;26;20368;-85
2024/04/17 06:49:14;;;;;;;1.90;1.80;;;5.90;99.90;;;;;;5425873;26;20414;-83
2024/04/17 06:51:40;;;;;;;2.38;1.60;;;6.10;99.90;;;;;;5430655;26;20331;-84
2024/04/17 06:54:06;;;;;;;1.60;1.50;;;6.10;99.90;;;;;;5420117;26;20327;-85
2024/04/17 06:56:31;;;;;;;2.00;1.60;;;5.70;99.90;;;;;;5415308;26;20324;-85
2024/04/17 06:58:57;;;;;;;1.80;1.70;;;6.60;99.90;;;;;;5416555;26;20483;-85
2024/04/17 07:01:22;;;;;;;2.05;1.70;;;5.60;99.90;;;;;;5415969;26;20323;-85
2024/04/17 07:03:48;;;;;;;1.60;1.50;;;5.60;99.90;;;;;;5415657;26;20328;-84
2024/04/17 07:06:13;;;;;;;1.80;1.70;;;6.00;99.90;;;;;;5418087;26;20774;-84
2024/04/17 07:08:39;;;;;;;1.70;1.60;;;5.80;99.90;;;;;;5416360;26;20926;-84
2024/04/17 07:11:04;;;;;;;2.17;2.07;;;5.90;99.90;;;;;;5421332;26;20368;-85
2024/04/17 07:13:30;;;;;;;1.57;1.47;;;5.80;99.90;;;;;;5425696;26;20331;-85
2024/04/17 07:15:57;;;;;;;1.57;1.47;;;5.90;99.90;;;;;;5414363;26;20377;-85
2024/04/17 07:18:23;;;;;;;3.03;2.23;;;5.80;99.90;;;;;;5413418;26;20959;-84
2024/04/17 07:20:49;;;;;;;4.00;2.85;;;5.70;99.90;;;;;;5414686;26;20347;-85
2024/04/17 07:23:15;;;;;;;3.20;1.87;;;5.30;99.90;;;;;;5404631;26;20386;-83
2024/04/17 07:25:41;;;;;;;1.30;1.20;;;6.10;99.90;;;;;;5414395;26;20771;-84
2024/04/17 07:28:06;;;;;;;1.57;1.30;;;6.10;99.90;;;;;;5416109;26;20331;-85
2024/04/17 07:30:32;;;;;;;1.43;1.33;;;6.00;99.90;;;;;;5416512;26;20359;-84
2024/04/17 07:32:57;;;;;;;4.00;2.10;;;5.90;99.90;;;;;;5415849;26;20319;-84
2024/04/17 07:35:23;;;;;;;2.40;2.00;;;5.80;99.90;;;;;;5416391;26;20371;-84
2024/04/17 07:37:48;;;;;;;2.00;1.83;;;5.90;99.90;;;;;;5414654;26;20851;-85
2024/04/17 07:40:14;;;;;;;2.10;1.90;;;5.90;99.90;;;;;;5417002;26;20727;-84
2024/04/17 07:42:41;;;;;;;4.28;2.95;;;6.30;99.90;;;;;;5414833;26;20440;-84
2024/04/17 07:45:06;;;;;;;2.30;2.00;;;5.90;99.90;;;;;;5414238;26;20914;-85
2024/04/17 07:47:32;;;;;;;3.85;3.00;;;6.30;99.90;;;;;;5414036;26;20324;-84
2024/04/17 07:49:57;;;;;;;2.50;2.30;;;5.90;99.90;;;;;;5414472;26;20335;-84
2024/04/17 07:52:23;;;;;;;2.50;2.30;;;6.10;99.90;;;;;;5414574;26;20347;-84
2024/04/17 07:54:48;;;;;;;3.40;2.30;;;6.20;99.90;;;;;;5426094;26;20335;-84
2024/04/17 07:57:14;;;;;;;2.83;2.53;;;6.20;99.90;;;;;;5417936;26;20331;-84
2024/04/17 07:59:39;;;;;;;3.43;2.50;;;6.20;99.90;;;;;;5420294;26;20316;-84
2024/04/17 08:02:05;;;;;;;3.20;3.00;;;6.30;99.90;;;;;;5417430;26;20691;-85
2024/04/17 08:04:31;;;;;;;3.50;3.20;;;6.20;99.90;;;;;;5420916;26;20433;-85
2024/04/17 08:06:56;;;;;;;3.70;3.40;;;5.70;99.90;;;;;;5418804;26;20859;-84
2024/04/17 08:09:22;;;;;;;3.63;3.33;;;6.20;99.90;;;;;;5416520;26;20372;-84
2024/04/17 08:11:47;;;;;;;3.63;3.33;;;6.60;99.90;;;;;;5401479;26;20324;-84
2024/04/17 08:14:13;;;;;;;3.47;3.17;;;6.20;99.90;;;;;;5400442;26;20336;-84
2024/04/17 08:16:38;;;;;;;3.20;2.90;;;5.80;99.90;;;;;;5416476;26;20716;-85
2024/04/17 08:19:04;;;;;;;3.40;3.10;;;5.70;99.90;;;;;;5402229;26;20341;-84
2024/04/17 08:21:31;;;;;;;3.85;3.50;;;6.20;99.90;;;;;;5414041;26;20375;-84
2024/04/17 08:23:56;;;;;;;3.80;3.40;;;5.60;99.90;;;;;;5423085;26;20335;-84
2024/04/17 08:26:22;;;;;;;4.63;3.17;;;6.10;99.90;;;;;;5430308;26;20383;-84
2024/04/17 08:28:47;;;;;;;3.87;3.47;;;6.00;99.90;;;;;;5420954;26;20332;-80
2024/04/17 08:31:13;;;;;;;4.80;4.30;;;5.60;99.90;;;;;;5419752;26;20836;-84
2024/04/17 08:33:38;;;;;;;5.20;4.70;;;5.50;99.90;;;;;;5421467;26;20328;-84
2024/04/17 08:36:04;;;;;;;5.95;5.35;;;;;;;;;;5407846;26;20400;-84
2024/04/17 08:38:30;;;;;;;6.50;5.80;;;5.70;99.90;;;;;;5407419;21;20435;-80
2024/04/17 08:40:55;;;;;;;7.50;6.30;;;5.60;99.90;;;;;;5346733;26;20324;-79
2024/04/17 08:43:24;;;;;;;8.63;6.83;;;5.60;99.90;;;;;;5345689;26;20439;-80
2024/04/17 08:45:53;;;;;;;7.25;6.53;;;5.60;99.90;;;;;;5344425;26;20354;-79
2024/04/17 08:48:21;;;;;;;7.53;6.73;;;5.60;99.90;;;;;;5345282;26;20360;-79
2024/04/17 08:50:47;;;;;;;7.60;6.80;;;5.60;99.90;;;;;;5337083;26;20823;-79
2024/04/17 08:53:20;;;;;;;8.30;7.40;;;5.80;99.90;;;;;;5340400;26;20329;-80
2024/04/17 08:55:46;;;;;;;8.13;7.20;;;5.80;99.90;;;;;;5345518;26;20348;-79
2024/04/17 08:58:12;;;;;;;8.23;6.00;;;5.60;99.90;;;;;;5344949;26;20344;-80
2024/04/17 09:00:39;;;;;;;7.53;6.00;;;5.70;99.90;;;;;;5344410;26;20821;-79
2024/04/17 09:03:10;;;;;;;6.32;5.20;;;6.10;99.90;;;;;;5313207;26;20332;-82
2024/04/17 09:05:35;;;;;;;5.90;5.40;;;5.60;99.90;;;;;;5345337;26;20356;-79
2024/04/17 09:08:01;;;;;;;6.90;5.43;;;5.60;99.90;;;;;;5345847;26;20357;-79
2024/04/17 09:10:27;;;;;;;5.85;5.13;;;5.80;99.90;;;;;;5360269;26;20360;-79
2024/04/17 09:12:54;;;;;;;7.50;5.90;;;6.20;99.90;;;;;;5348470;26;20354;-80
2024/04/17 09:15:20;;;;;;;7.00;6.30;;;5.80;99.90;;;;;;5348725;26;20344;-80
2024/04/17 09:17:48;;;;;;;6.30;5.30;;;5.60;99.90;;;;;;5332958;26;20395;-80
2024/04/17 09:20:14;;;;;;;5.30;4.80;;;5.70;99.90;;;;;;5346061;26;20333;-80
2024/04/17 09:22:40;;;;;;;6.00;4.60;;;5.50;99.90;;;;;;5330130;26;20421;-80
2024/04/17 09:25:15;;;;;;;6.15;4.95;;;5.90;99.90;;;;;;5339339;26;20396;-81
2024/04/17 09:27:41;;;;;;;5.43;4.90;;;5.70;99.90;;;;;;5345719;26;20336;-80
2024/04/17 09:30:07;;;;;;;6.07;5.43;;;5.90;99.90;;;;;;5346908;26;20477;-80
2024/04/17 09:32:32;;;;;;;5.27;4.70;;;6.00;99.90;;;;;;5346035;26;20340;-80
2024/04/17 09:34:59;;;;;;;5.57;4.90;;;5.90;99.90;;;;;;5315036;26;20381;-80
2024/04/17 09:37:25;;;;;;;4.80;4.30;;;5.90;99.90;;;;;;5345195;26;20885;-80
2024/04/17 09:39:51;;;;;;;6.45;5.18;;;5.80;99.90;;;;;;5345818;26;20332;-81
2024/04/17 09:42:16;;;;;;;5.38;4.70;;;5.90;99.90;;;;;;5314663;26;20428;-80
2024/04/17 09:44:44;;;;;;;5.70;5.10;;;5.70;99.90;;;;;;5345569;26;20365;-80
2024/04/17 09:47:12;;;;;;;7.00;4.68;;;5.90;99.90;;;;;;5345310;26;20337;-81
2024/04/17 09:49:45;;;;;;;6.70;4.50;;;5.90;99.90;;;;;;5344984;26;20398;-81
2024/04/17 09:52:15;;;;;;;5.32;4.70;;;6.00;99.90;;;;;;5315115;26;20333;-80
2024/04/17 09:54:43;;;;;;;6.60;4.82;;;6.00;99.90;;;;;;5317922;26;20429;-80
2024/04/17 09:57:11;;;;;;;6.22;5.20;;;5.80;99.90;;;;;;5319633;26;20348;-80
2024/04/17 09:59:37;;;;;;;6.00;4.80;;;5.70;99.90;;;;;;5348805;26;20321;-81
2024/04/17 10:02:04;;;;;;;5.78;5.18;;;6.10;99.90;;;;;;5332161;26;20332;-80
2024/04/17 10:04:30;;;;;;;5.20;4.70;;;6.10;99.90;;;;;;5348237;26;20363;-80
2024/04/17 10:06:57;;;;;;;7.90;5.35;;;5.80;99.90;;;;;;5321872;26;20667;-80
2024/04/17 10:09:24;;;;;;;5.47;4.10;;;6.30;99.90;;;;;;5328859;26;20381;-80
2024/04/17 10:11:52;;;;;;;4.68;4.28;;;5.70;99.90;;;;;;5327622;26;20391;-80
2024/04/17 10:14:18;;;;;;;4.45;4.05;;;5.60;99.90;;;;;;5327405;26;20336;-80
2024/04/17 10:16:44;;;;;;;4.78;3.80;;;5.50;99.90;;;;;;5321482;26;20432;-80
2024/04/17 10:19:12;;;;;;;5.60;4.33;;;6.00;99.90;;;;;;5318283;26;20367;-80
2024/04/17 10:21:37;;;;;;;4.55;4.15;;;5.80;99.90;;;;;;5317943;26;20440;-80
2024/04/17 10:24:07;;;;;;;4.77;4.30;;;6.00;99.90;;;;;;5307706;26;20345;-81
2024/04/17 10:26:44;;;;;;;5.82;3.90;;;6.10;99.90;;;;;;5317992;26;20372;-81
2024/04/17 10:29:30;;;;;;;5.10;3.90;;;6.20;99.90;;;;;;5317978;26;20600;-81
2024/04/17 10:31:55;;;;;;;5.35;3.50;;;6.20;99.90;;;;;;5348455;26;20341;-81
2024/04/17 10:34:21;;;;;;;4.87;3.80;;;6.20;99.90;;;;;;5348967;26;20337;-82
2024/04/17 10:37:14;;;;;;;4.78;4.10;;;6.30;99.90;;;;;;5326081;26;20323;-81
2024/04/17 10:39:41;;;;;;;4.90;4.40;;;6.50;99.90;;;;;;5333032;26;20356;-82
2024/04/17 10:42:07;;;;;;;4.03;3.63;;;6.80;99.90;;;;;;5318575;26;20373;-82
2024/04/17 10:44:34;;;;;;;4.28;3.30;;;7.00;99.90;;;;;;5348574;26;20836;-82
2024/04/17 10:47:06;;;;;;;4.88;3.35;;;7.10;99.90;;;;;;5348201;26;20344;-82
2024/04/17 10:49:39;;;;;;;4.27;3.50;;;7.20;99.90;;;;;;5348715;26;20429;-82
2024/04/17 10:52:05;;;;;;;5.07;3.60;;;7.10;99.90;;;;;;5353844;26;20861;-81
2024/04/17 10:54:34;;;;;;;5.60;4.00;;;7.70;99.90;;;;;;5352361;26;20376;-82
2024/04/17 10:57:02;;;;;;;4.15;3.75;;;8.40;99.90;;;;;;5324006;26;20755;-82
2024/04/17 10:59:28;;;;;;;3.28;2.97;;;8.30;99.90;;;;;;5321978;26;20471;-82
2024/04/17 11:01:54;;;;;;;3.70;3.30;;;7.90;99.90;;;;;;5349284;26;20762;-81
2024/04/17 11:04:19;;;;;;;5.78;4.00;;;8.20;99.90;;;;;;5348683;26;20771;-82
2024/04/17 11:06:45;;;;;;;4.10;3.63;;;8.30;99.90;;;;;;5346533;26;20340;-82
2024/04/17 11:09:11;;;;;;;4.65;3.55;;;8.30;99.90;;;;;;5348629;26;20330;-81
2024/04/17 11:11:37;;;;;;;3.40;2.97;;;8.20;99.90;;;;;;5349112;26;20329;-82
2024/04/17 11:14:12;;;;;;;4.97;3.27;;;8.40;99.90;;;;;;5317793;26;20379;-81
2024/04/17 11:16:37;;;;;;;3.00;2.80;;;8.60;99.90;;;;;;5297375;27;20852;-81
2024/04/17 11:19:03;;;;;;;4.60;3.20;;;8.70;99.90;;;;;;5309422;26;20500;-81
2024/04/17 11:21:29;;;;;;;5.30;3.10;;;8.90;99.90;;;;;;5317800;26;20377;-82
2024/04/17 11:23:54;;;;;;;5.80;3.00;;;9.20;99.90;;;;;;5337036;26;20356;-82
2024/04/17 11:26:20;;;;;;;5.70;2.80;;;9.10;99.90;;;;;;5347233;26;20474;-82
2024/04/17 11:28:46;;;;;;;4.00;2.43;;;9.00;99.90;;;;;;5316500;26;20401;-81
2024/04/17 11:31:13;;;;;;;3.97;3.00;;;9.30;99.90;;;;;;5348010;26;20868;-80
2024/04/17 11:33:39;;;;;;;3.10;2.80;;;10.30;99.90;;;;;;5316537;26;20428;-81
2024/04/17 11:36:14;;;;;;;5.07;2.35;;;10.70;99.90;;;;;;5318066;26;20396;-81
2024/04/17 11:38:46;;;;;;;3.42;2.17;;;10.20;99.90;;;;;;5316340;26;20377;-80
2024/04/17 11:41:15;;;;;;;2.53;2.30;;;10.10;99.90;;;;;;5347420;26;20396;-80
2024/04/17 11:43:42;;;;;;;4.57;2.33;;;9.90;99.90;;;;;;5346284;26;20418;-79
2024/04/17 11:46:09;;;;;;;2.80;2.50;;;9.70;99.90;;;;;;5347076;26;20400;-79
2024/04/17 11:48:35;;;;;;;3.13;2.03;;;11.20;99.90;;;;;;5346112;26;20397;-79
2024/04/17 11:51:01;;;;;;;3.10;2.00;;;12.00;99.90;;;;;;5316171;26;20341;-79
2024/04/17 11:53:27;;;;;;;3.00;2.30;;;12.10;99.90;;;;;;5347386;26;20380;-80
2024/04/17 11:55:52;;;;;;;3.08;1.50;;;11.30;99.90;;;;;;5347988;26;20740;-79
2024/04/17 11:58:19;;;;;;;4.03;2.10;;;11.10;99.90;;;;;;5288312;26;20746;-81
2024/04/17 12:00:44;;;;;;;4.10;1.83;;;10.50;99.90;;;;;;5317910;26;20379;-79
2024/04/17 12:03:10;;;;;;;3.10;1.30;;;10.00;99.90;;;;;;5347837;26;20324;-80
2024/04/17 12:05:36;;;;;;;2.70;1.60;;;9.10;99.90;;;;;;5347254;26;20397;-79
2024/04/17 12:08:01;;;;;;;4.22;1.75;;;9.00;99.90;;;;;;5345551;26;20340;-78
2024/04/17 12:10:27;;;;;;;4.38;1.80;;;9.10;99.90;;;;;;5346497;26;20840;-80
2024/04/17 12:12:53;;;;;;;3.40;2.20;;;8.90;99.90;;;;;;5348042;26;20418;-79
2024/04/17 12:15:19;;;;;;;2.40;1.60;;;8.90;99.90;;;;;;5316278;26;20340;-80
2024/04/17 12:17:46;;;;;;;4.63;1.30;;;9.10;99.90;;;;;;5348274;26;20486;-80
2024/04/17 12:20:12;;;;;;;3.50;1.50;;;9.10;99.90;;;;;;5319430;26;20421;-80
2024/04/17 12:22:38;;;;;;;4.23;2.10;;;9.30;99.90;;;;;;5315149;26;20417;-80
2024/04/17 12:27:47;;;;;;;3.65;1.75;;;9.80;99.90;;;;;;5347617;26;20436;-80
2024/04/17 12:30:13;;;;;;;2.42;1.52;;;9.40;99.90;;;;;;5333857;26;20695;-80
2024/04/17 12:32:39;;;;;;;2.90;1.60;;;9.30;99.90;;;;;;5333401;26;20337;-80
2024/04/17 12:35:05;;;;;;;1.90;1.50;;;10.00;99.90;;;;;;5333426;26;20351;-80
2024/04/17 12:37:31;;;;;;;3.28;1.70;;;10.10;99.90;;;;;;5330518;26;20388;-80
2024/04/17 12:39:56;;;;;;;3.10;1.10;;;10.00;99.90;;;;;;5347333;26;20476;-80
2024/04/17 12:42:22;;;;;;;4.27;1.60;;;9.70;99.90;;;;;;5332436;26;20757;-81
2024/04/17 12:44:48;;;;;;;3.75;1.38;;;9.40;99.90;;;;;;5337095;26;20407;-81
2024/04/17 12:47:14;;;;;;;2.63;1.00;;;9.30;99.90;;;;;;5315440;26;20432;-80
2024/04/17 12:49:39;;;;;;;2.87;1.30;;;9.50;99.90;;;;;;5315692;26;20344;-80
2024/04/17 12:52:05;;;;;;;1.70;1.20;;;9.80;99.90;;;;;;5333579;26;20958;-80
2024/04/17 12:54:30;;;;;;;2.10;1.20;;;9.60;99.90;;;;;;5330353;26;20356;-81
2024/04/17 12:56:56;;;;;;;2.20;1.30;;;9.50;99.90;;;;;;5314881;26;20341;-81
2024/04/17 12:59:21;;;;;;;4.30;1.50;;;9.40;99.90;;;;;;5314933;26;20349;-80
2024/04/17 13:01:47;;;;;;;3.70;1.55;;;9.60;99.90;;;;;;5314589;26;20337;-80
2024/04/17 13:04:12;;;;;;;2.42;1.20;;;9.90;99.90;;;;;;5344922;26;20367;-80
2024/04/17 13:06:38;;;;;;;3.33;1.60;;;9.60;99.90;;;;;;5318226;26;20329;-80